Time,TemperatureF,DewpointF,PressureIn,WindDirection,WindDirectionDegrees,WindSpeedMPH,WindSpeedGustMPH,Humidity,HourlyPrecipIn,Conditions,Clouds,dailyrainin,SoftwareType,DateUTC
2013-06-21 00:08:00,69.2,64.0,30.20,NE,49,3.0,-999.0,83,-99.99,,,0.00,weatherlink.com 1.10,2013-06-21 05:08:00,
2013-06-21 00:23:00,69.0,64.0,30.19,ENE,63,2.0,-999.0,83,-99.99,,,0.00,weatherlink.com 1.10,2013-06-21 05:23:00,
2013-06-21 00:38:00,69.2,63.0,30.19,ENE,63,2.0,-999.0,81,-99.99,,,0.00,weatherlink.com 1.10,2013-06-21 05:38:00,
2013-06-21 00:53:00,68.9,63.0,30.19,ENE,59,0.0,-999.0,82,-99.99,,,0.00,weatherlink.com 1.10,2013-06-21 05:53:00,
2013-06-21 01:08:00,68.2,63.0,30.20,NNW,339,0.0,-999.0,84,-99.99,,,0.00,weatherlink.com 1.10,2013-06-21 06:08:00,
2013-06-21 01:23:00,68.3,63.0,30.19,ENE,78,2.0,-999.0,84,-99.99,,,0.00,weatherlink.com 1.10,2013-06-21 06:23:00,
2013-06-21 01:38:00,68.1,64.0,30.19,ENE,72,0.0,-999.0,85,-99.99,,,0.00,weatherlink.com 1.10,2013-06-21 06:38:00,
2013-06-21 01:53:00,67.5,63.0,30.19,ENE,69,0.0,-999.0,86,-99.99,,,0.00,weatherlink.com 1.10,2013-06-21 06:53:00,
2013-06-21 02:08:00,67.0,63.0,30.19,ENE,69,0.0,-999.0,86,-99.99,,,0.00,weatherlink.com 1.10,2013-06-21 07:08:00,
2013-06-21 02:23:00,66.9,63.0,30.20,ENE,69,0.0,-999.0,87,-99.99,,,0.00,weatherlink.com 1.10,2013-06-21 07:23:00,
2013-06-21 02:38:00,66.3,62.0,30.20,ENE,66,0.0,-999.0,87,-99.99,,,0.00,weatherlink.com 1.10,2013-06-21 07:38:00,
2013-06-21 02:53:00,66.2,63.0,30.20,ENE,63,2.0,-999.0,88,-99.99,,,0.00,weatherlink.com 1.10,2013-06-21 07:53:00,
2013-06-21 03:08:00,66.2,63.0,30.20,ENE,63,4.0,-999.0,88,-99.99,,,0.00,weatherlink.com 1.10,2013-06-21 08:08:00,
2013-06-21 03:23:00,66.2,63.0,30.20,ENE,63,1.0,-999.0,88,-99.99,,,0.00,weatherlink.com 1.10,2013-06-21 08:23:00,
2013-06-21 03:38:00,66.7,63.0,30.20,ENE,67,2.0,-999.0,88,-99.99,,,0.00,weatherlink.com 1.10,2013-06-21 08:38:00,
2013-06-21 03:53:00,68.0,64.0,30.20,ENE,78,5.0,-999.0,88,-99.99,,,0.00,weatherlink.com 1.10,2013-06-21 08:53:00,
2013-06-21 04:08:00,68.1,65.0,30.20,East,84,3.0,-999.0,88,-99.99,,,0.00,weatherlink.com 1.10,2013-06-21 09:08:00,
2013-06-21 04:23:00,68.0,64.0,30.20,East,88,4.0,-999.0,88,-99.99,,,0.00,weatherlink.com 1.10,2013-06-21 09:23:00,
2013-06-21 04:38:00,67.8,64.0,30.20,East,82,1.0,-999.0,88,-99.99,,,0.00,weatherlink.com 1.10,2013-06-21 09:38:00,
2013-06-21 04:53:00,67.7,64.0,30.20,East,82,3.0,-999.0,88,-99.99,,,0.00,weatherlink.com 1.10,2013-06-21 09:53:00,
2013-06-21 05:09:00,67.7,64.0,30.21,East,83,2.0,-999.0,88,-99.99,,,0.00,weatherlink.com 1.10,2013-06-21 10:09:00,
2013-06-21 05:24:00,67.6,64.0,30.21,East,83,3.0,-999.0,88,-99.99,,,0.00,weatherlink.com 1.10,2013-06-21 10:24:00,
2013-06-21 05:39:00,67.5,64.0,30.21,ENE,76,0.0,-999.0,88,-99.99,,,0.00,weatherlink.com 1.10,2013-06-21 10:39:00,
2013-06-21 05:54:00,67.6,64.0,30.22,East,83,0.0,-999.0,88,-99.99,,,0.00,weatherlink.com 1.10,2013-06-21 10:54:00,
2013-06-21 06:09:00,67.6,64.0,30.22,ENE,76,4.0,-999.0,88,-99.99,,,0.00,weatherlink.com 1.10,2013-06-21 11:09:00,
2013-06-21 06:24:00,67.9,64.0,30.23,East,83,5.0,-999.0,88,-99.99,,,0.00,weatherlink.com 1.10,2013-06-21 11:24:00,
2013-06-21 06:39:00,68.8,65.0,30.23,ENE,71,2.0,-999.0,87,-99.99,,,0.00,weatherlink.com 1.10,2013-06-21 11:39:00,
2013-06-21 06:54:00,69.5,65.0,30.23,East,94,0.0,-999.0,86,-99.99,,,0.00,weatherlink.com 1.10,2013-06-21 11:54:00,
2013-06-21 07:09:00,70.6,66.0,30.23,East,79,3.0,-999.0,85,-99.99,,,0.00,weatherlink.com 1.10,2013-06-21 12:09:00,
2013-06-21 07:24:00,72.0,67.0,30.23,ENE,74,2.0,-999.0,83,-99.99,,,0.00,weatherlink.com 1.10,2013-06-21 12:24:00,
2013-06-21 07:39:00,72.7,67.0,30.24,ESE,109,2.0,-999.0,82,-99.99,,,0.00,weatherlink.com 1.10,2013-06-21 12:39:00,
2013-06-21 07:54:00,73.5,67.0,30.25,East,85,5.0,-999.0,79,-99.99,,,0.00,weatherlink.com 1.10,2013-06-21 12:54:00,
2013-06-21 08:09:00,73.9,67.0,30.25,East,86,0.0,-999.0,78,-99.99,,,0.00,weatherlink.com 1.10,2013-06-21 13:09:00,
2013-06-21 08:24:00,74.7,67.0,30.25,SE,128,7.0,-999.0,76,-99.99,,,0.00,weatherlink.com 1.10,2013-06-21 13:24:00,
2013-06-21 08:39:00,74.8,67.0,30.26,SE,144,5.0,-999.0,77,-99.99,,,0.00,weatherlink.com 1.10,2013-06-21 13:39:00,
2013-06-21 08:54:00,75.8,67.0,30.25,SE,140,0.0,-999.0,75,-99.99,,,0.00,weatherlink.com 1.10,2013-06-21 13:54:00,
2013-06-21 09:09:00,76.5,67.0,30.26,SE,126,9.0,-999.0,73,-99.99,,,0.00,weatherlink.com 1.10,2013-06-21 14:09:00,
2013-06-21 09:24:00,76.8,67.0,30.26,ESE,122,5.0,-999.0,71,-99.99,,,0.00,weatherlink.com 1.10,2013-06-21 14:24:00,
2013-06-21 09:39:00,77.8,67.0,30.26,ENE,78,3.0,-999.0,69,-99.99,,,0.00,weatherlink.com 1.10,2013-06-21 14:39:00,
2013-06-21 09:54:00,77.3,67.0,30.26,East,95,8.0,-999.0,70,-99.99,,,0.00,weatherlink.com 1.10,2013-06-21 14:54:00,
2013-06-21 10:24:00,78.0,67.0,30.27,East,98,7.0,-999.0,69,-99.99,,,0.00,weatherlink.com 1.10,2013-06-21 15:24:00,
2013-06-21 10:39:00,78.2,67.0,30.27,East,96,7.0,-999.0,69,-99.99,,,0.00,weatherlink.com 1.10,2013-06-21 15:39:00,
2013-06-21 10:54:00,78.8,67.0,30.27,ESE,118,7.0,-999.0,67,-99.99,,,0.00,weatherlink.com 1.10,2013-06-21 15:54:00,
2013-06-21 11:09:00,78.5,67.0,30.27,South,170,4.0,-999.0,67,-99.99,,,0.00,weatherlink.com 1.10,2013-06-21 16:09:00,
2013-06-21 11:24:00,79.5,67.0,30.26,East,98,5.0,-999.0,65,-99.99,,,0.00,weatherlink.com 1.10,2013-06-21 16:24:00,
2013-06-21 11:39:00,79.1,67.0,30.27,South,170,2.0,-999.0,66,-99.99,,,0.00,weatherlink.com 1.10,2013-06-21 16:39:00,
2013-06-21 11:54:00,79.8,67.0,30.27,ENE,71,1.0,-999.0,65,-99.99,,,0.00,weatherlink.com 1.10,2013-06-21 16:54:00,
2013-06-21 12:09:00,80.9,68.0,30.26,SE,144,5.0,-999.0,64,-99.99,,,0.00,weatherlink.com 1.10,2013-06-21 17:09:00,
2013-06-21 12:24:00,80.0,66.0,30.26,East,101,11.0,-999.0,63,-99.99,,,0.00,weatherlink.com 1.10,2013-06-21 17:24:00,
2013-06-21 12:54:00,81.1,65.0,30.25,East,98,5.0,-999.0,58,-99.99,,,0.00,weatherlink.com 1.10,2013-06-21 17:54:00,
2013-06-21 13:24:00,82.1,65.0,30.24,SE,141,5.0,-999.0,57,-99.99,,,0.00,weatherlink.com 1.10,2013-06-21 18:24:00,
2013-06-21 13:39:00,82.2,66.0,30.24,ESE,122,1.0,-999.0,59,-99.99,,,0.00,weatherlink.com 1.10,2013-06-21 18:39:00,
2013-06-21 13:54:00,81.9,66.0,30.24,ENE,78,4.0,-999.0,58,-99.99,,,0.00,weatherlink.com 1.10,2013-06-21 18:54:00,
2013-06-21 14:09:00,81.6,67.0,30.23,ENE,76,5.0,-999.0,61,-99.99,,,0.00,weatherlink.com 1.10,2013-06-21 19:09:00,
2013-06-21 14:24:00,82.7,65.0,30.23,East,87,3.0,-999.0,56,-99.99,,,0.00,weatherlink.com 1.10,2013-06-21 19:24:00,
2013-06-21 14:39:00,83.0,67.0,30.23,East,100,4.0,-999.0,59,-99.99,,,0.00,weatherlink.com 1.10,2013-06-21 19:39:00,
2013-06-21 14:54:00,82.1,66.0,30.22,ESE,117,9.0,-999.0,58,-99.99,,,0.00,weatherlink.com 1.10,2013-06-21 19:54:00,
2013-06-21 15:09:00,82.4,67.0,30.21,ESE,111,11.0,-999.0,59,-99.99,,,0.00,weatherlink.com 1.10,2013-06-21 20:09:00,
2013-06-21 15:24:00,82.3,65.0,30.21,East,96,5.0,-999.0,57,-99.99,,,0.00,weatherlink.com 1.10,2013-06-21 20:24:00,
2013-06-21 15:39:00,82.6,65.0,30.21,SSE,154,9.0,-999.0,56,-99.99,,,0.00,weatherlink.com 1.10,2013-06-21 20:39:00,
2013-06-21 15:54:00,82.8,63.0,30.20,East,99,7.0,-999.0,51,-99.99,,,0.00,weatherlink.com 1.10,2013-06-21 20:54:00,
2013-06-21 16:09:00,83.0,64.0,30.20,SSE,153,0.0,-999.0,52,-99.99,,,0.00,weatherlink.com 1.10,2013-06-21 21:09:00,
2013-06-21 16:24:00,83.0,65.0,30.19,East,98,5.0,-999.0,54,-99.99,,,0.00,weatherlink.com 1.10,2013-06-21 21:24:00,
2013-06-21 16:39:00,82.9,64.0,30.19,SE,128,0.0,-999.0,53,-99.99,,,0.00,weatherlink.com 1.10,2013-06-21 21:39:00,
2013-06-21 16:54:00,83.1,65.0,30.19,SE,128,1.0,-999.0,54,-99.99,,,0.00,weatherlink.com 1.10,2013-06-21 21:54:00,
2013-06-21 17:09:00,83.1,65.0,30.18,East,83,3.0,-999.0,55,-99.99,,,0.00,weatherlink.com 1.10,2013-06-21 22:09:00,
2013-06-21 17:24:00,83.0,65.0,30.18,ESE,102,6.0,-999.0,55,-99.99,,,0.00,weatherlink.com 1.10,2013-06-21 22:24:00,
2013-06-21 17:39:00,82.9,66.0,30.17,East,88,4.0,-999.0,56,-99.99,,,0.00,weatherlink.com 1.10,2013-06-21 22:39:00,
2013-06-21 17:54:00,82.2,66.0,30.17,ESE,112,2.0,-999.0,58,-99.99,,,0.00,weatherlink.com 1.10,2013-06-21 22:54:00,
2013-06-21 18:09:00,82.0,65.0,30.17,ESE,108,5.0,-999.0,57,-99.99,,,0.00,weatherlink.com 1.10,2013-06-21 23:09:00,
2013-06-21 18:24:00,81.8,66.0,30.16,ESE,111,6.0,-999.0,59,-99.99,,,0.00,weatherlink.com 1.10,2013-06-21 23:24:00,
2013-06-21 18:39:00,81.4,67.0,30.16,SE,129,4.0,-999.0,61,-99.99,,,0.00,weatherlink.com 1.10,2013-06-21 23:39:00,
2013-06-21 18:54:00,81.2,67.0,30.17,SE,134,0.0,-999.0,63,-99.99,,,0.00,weatherlink.com 1.10,2013-06-21 23:54:00,
2013-06-21 19:09:00,80.5,67.0,30.17,ESE,105,1.0,-999.0,64,-99.99,,,0.00,weatherlink.com 1.10,2013-06-22 00:09:00,
2013-06-21 19:24:00,80.0,67.0,30.17,ESE,105,1.0,-999.0,64,-99.99,,,0.00,weatherlink.com 1.10,2013-06-22 00:24:00,
2013-06-21 19:40:00,79.3,67.0,30.17,ESE,106,0.0,-999.0,65,-99.99,,,0.00,weatherlink.com 1.10,2013-06-22 00:40:00,
2013-06-21 19:55:00,78.8,66.0,30.16,ESE,106,1.0,-999.0,66,-99.99,,,0.00,weatherlink.com 1.10,2013-06-22 00:55:00,
2013-06-21 20:10:00,78.3,66.0,30.17,ESE,102,0.0,-999.0,66,-99.99,,,0.00,weatherlink.com 1.10,2013-06-22 01:10:00,
2013-06-21 20:25:00,77.7,67.0,30.17,ESE,102,0.0,-999.0,69,-99.99,,,0.00,weatherlink.com 1.10,2013-06-22 01:25:00,
2013-06-21 20:40:00,76.4,67.0,30.18,ESE,102,0.0,-999.0,73,-99.99,,,0.00,weatherlink.com 1.10,2013-06-22 01:40:00,
2013-06-21 20:55:00,75.3,67.0,30.19,ESE,102,0.0,-999.0,74,-99.99,,,0.00,weatherlink.com 1.10,2013-06-22 01:55:00,
2013-06-21 21:10:00,74.8,66.0,30.19,ESE,102,0.0,-999.0,75,-99.99,,,0.00,weatherlink.com 1.10,2013-06-22 02:10:00,
2013-06-21 21:25:00,74.1,66.0,30.20,ESE,102,0.0,-999.0,77,-99.99,,,0.00,weatherlink.com 1.10,2013-06-22 02:25:00,
2013-06-21 21:40:00,73.4,67.0,30.20,ESE,102,0.0,-999.0,79,-99.99,,,0.00,weatherlink.com 1.10,2013-06-22 02:40:00,
2013-06-21 21:55:00,73.5,66.0,30.20,ESE,102,0.0,-999.0,78,-99.99,,,0.00,weatherlink.com 1.10,2013-06-22 02:55:00,
2013-06-21 22:10:00,73.5,67.0,30.21,ESE,102,0.0,-999.0,79,-99.99,,,0.00,weatherlink.com 1.10,2013-06-22 03:10:00,
2013-06-21 22:25:00,72.8,67.0,30.21,ESE,102,0.0,-999.0,81,-99.99,,,0.00,weatherlink.com 1.10,2013-06-22 03:25:00,
2013-06-21 22:40:00,72.1,67.0,30.21,ESE,102,1.0,-999.0,83,-99.99,,,0.00,weatherlink.com 1.10,2013-06-22 03:40:00,
2013-06-21 22:55:00,71.6,67.0,30.21,ESE,102,0.0,-999.0,84,-99.99,,,0.00,weatherlink.com 1.10,2013-06-22 03:55:00,
2013-06-21 23:10:00,71.4,66.0,30.21,ESE,102,2.0,-999.0,84,-99.99,,,0.00,weatherlink.com 1.10,2013-06-22 04:10:00,
2013-06-21 23:25:00,71.4,66.0,30.21,East,85,4.0,-999.0,83,-99.99,,,0.00,weatherlink.com 1.10,2013-06-22 04:25:00,
2013-06-21 23:40:00,71.6,66.0,30.20,East,80,0.0,-999.0,83,-99.99,,,0.00,weatherlink.com 1.10,2013-06-22 04:40:00,
2013-06-21 23:55:00,72.2,66.0,30.20,East,88,4.0,-999.0,82,-99.99,,,0.00,weatherlink.com 1.10,2013-06-22 04:55:00,